createdAt,value
2018-12-30T00:01:25.260Z,95542.64
2018-12-30T00:03:54.784Z,95542.03
2018-12-30T00:06:24.661Z,95547.70
2018-12-30T00:08:54.447Z,95551.59
2018-12-30T00:11:23.978Z,95545.17
2018-12-30T00:13:53.431Z,95544.05
2018-12-30T00:16:22.951Z,95546.47
2018-12-30T00:18:52.480Z,95548.06
2018-12-30T00:21:22.017Z,95550.46
2018-12-30T00:23:51.569Z,95550.81
2018-12-30T00:26:21.024Z,95550.16
2018-12-30T00:28:50.605Z,95543.86
2018-12-30T00:31:20.148Z,95553.58
2018-12-30T00:33:49.599Z,95553.02
2018-12-30T00:36:19.152Z,95540.63
2018-12-30T00:38:48.676Z,95550.09
2018-12-30T00:41:18.247Z,95546.33
2018-12-30T00:43:48.101Z,95545.16
2018-12-30T00:46:17.603Z,95545.25
2018-12-30T00:48:47.140Z,95544.09
2018-12-30T00:51:17.278Z,95548.40
2018-12-30T00:53:46.940Z,95544.70
2018-12-30T00:56:16.730Z,95538.69
2018-12-30T00:58:46.239Z,95544.03
2018-12-30T01:01:15.712Z,95547.70
2018-12-30T01:03:47.051Z,95547.23
2018-12-30T01:06:16.380Z,95548.40
2018-12-30T01:08:45.875Z,95543.73
2018-12-30T01:11:15.366Z,95543.13
2018-12-30T01:13:44.841Z,95541.91
2018-12-30T01:16:14.327Z,95535.70
2018-12-30T01:18:43.817Z,95531.55
2018-12-30T01:21:13.272Z,95531.61
2018-12-30T01:23:42.753Z,95524.78
2018-12-30T01:26:12.211Z,95529.97
2018-12-30T01:28:41.683Z,95530.61
2018-12-30T01:31:11.343Z,95523.30
2018-12-30T01:33:40.893Z,95522.66
2018-12-30T01:36:12.381Z,95523.70
2018-12-30T01:38:41.886Z,95516.41
2018-12-30T01:41:16.546Z,95518.39
2018-12-30T01:43:46.076Z,95522.33
2018-12-30T01:46:15.569Z,95513.73
2018-12-30T01:48:45.113Z,95512.78
2018-12-30T01:51:14.592Z,95510.61
2018-12-30T01:53:44.115Z,95507.81
2018-12-30T01:56:22.223Z,95505.09
2018-12-30T01:58:51.730Z,95500.39
2018-12-30T02:01:21.233Z,95508.30
2018-12-30T02:03:50.761Z,95505.30
2018-12-30T02:06:20.865Z,95502.11
2018-12-30T02:08:50.329Z,95503.45
2018-12-30T02:11:19.828Z,95494.50
2018-12-30T02:13:49.713Z,95489.47
2018-12-30T02:16:19.144Z,95490.23
2018-12-30T02:18:48.630Z,95484.84
2018-12-30T02:21:18.107Z,95490.30
2018-12-30T02:23:47.610Z,95479.88
2018-12-30T02:26:17.098Z,95478.45
2018-12-30T02:28:46.893Z,95479.31
2018-12-30T02:31:16.357Z,95472.09
2018-12-30T02:33:45.825Z,95471.31
2018-12-30T02:36:15.370Z,95473.56
2018-12-30T02:38:44.884Z,95463.36
2018-12-30T02:41:14.380Z,95466.55
2018-12-30T02:43:43.855Z,95467.14
2018-12-30T02:46:13.654Z,95466.23
2018-12-30T02:48:43.158Z,95458.42
2018-12-30T02:51:12.656Z,95452.15
2018-12-30T02:53:42.190Z,95451.94
2018-12-30T02:56:11.775Z,95445.15
2018-12-30T02:58:41.209Z,95444.84
2018-12-30T03:01:10.698Z,95446.48
2018-12-30T03:03:40.194Z,95444.05
2018-12-30T03:06:09.662Z,95442.87
2018-12-30T03:08:39.149Z,95442.19
2018-12-30T03:11:08.664Z,95437.61
2018-12-30T03:13:38.131Z,95436.11
2018-12-30T03:16:07.614Z,95430.95
2018-12-30T03:18:37.106Z,95431.26
2018-12-30T03:21:06.751Z,95424.95
2018-12-30T03:23:36.273Z,95435.14
2018-12-30T03:26:05.792Z,95431.53
2018-12-30T03:28:35.304Z,95431.53
2018-12-30T03:31:04.792Z,95428.13
2018-12-30T03:33:34.277Z,95425.57
2018-12-30T03:36:03.773Z,95417.18
2018-12-30T03:38:33.262Z,95414.17
2018-12-30T03:41:03.162Z,95414.02
2018-12-30T03:43:32.655Z,95415.63
2018-12-30T03:46:02.133Z,95416.91
2018-12-30T03:48:31.603Z,95420.69
2018-12-30T03:51:01.066Z,95412.17
2018-12-30T03:53:30.549Z,95414.28
2018-12-30T03:56:00.039Z,95413.45
2018-12-30T03:58:29.521Z,95412.48
2018-12-30T04:00:58.998Z,95405.71
2018-12-30T04:03:28.456Z,95412.05
2018-12-30T04:05:57.949Z,95410.63
2018-12-30T04:08:27.437Z,95407.78
2018-12-30T04:10:56.883Z,95412.37
2018-12-30T04:13:26.366Z,95401.06
2018-12-30T04:15:55.834Z,95409.38
2018-12-30T04:18:25.434Z,95411.08
2018-12-30T04:20:54.907Z,95414.73
2018-12-30T04:23:24.449Z,95412.15
2018-12-30T04:25:53.896Z,95417.22
2018-12-30T04:28:23.377Z,95416.05
2018-12-30T04:30:52.914Z,95419.23
2018-12-30T04:33:22.376Z,95423.73
2018-12-30T04:35:51.929Z,95421.02
2018-12-30T04:38:21.327Z,95418.81
2018-12-30T04:40:50.802Z,95421.06
2018-12-30T04:43:20.283Z,95416.12
2018-12-30T04:45:49.740Z,95414.92
2018-12-30T04:48:19.209Z,95408.21
2018-12-30T04:50:48.753Z,95407.83
2018-12-30T04:53:18.287Z,95412.98
2018-12-30T04:55:47.758Z,95405.41
2018-12-30T04:58:17.350Z,95408.58
2018-12-30T05:00:46.860Z,95410.35
2018-12-30T05:03:16.397Z,95411.11
2018-12-30T05:05:45.942Z,95416.70
2018-12-30T05:08:15.459Z,95411.85
2018-12-30T05:10:44.877Z,95420.63
2018-12-30T05:13:15.550Z,95410.35
2018-12-30T05:15:45.046Z,95415.57
2018-12-30T05:18:14.556Z,95413.04
2018-12-30T05:20:44.093Z,95414.09
2018-12-30T05:23:13.641Z,95408.97
2018-12-30T05:25:44.420Z,95409.13
2018-12-30T05:28:13.892Z,95404.77
2018-12-30T05:30:43.421Z,95417.26
2018-12-30T05:33:12.941Z,95409.11
2018-12-30T05:35:42.444Z,95413.02
2018-12-30T05:38:11.926Z,95414.33
2018-12-30T05:40:41.427Z,95414.86
2018-12-30T05:43:10.886Z,95412.81
2018-12-30T05:45:40.433Z,95408.58
2018-12-30T05:48:09.934Z,95401.98
2018-12-30T05:50:39.403Z,95408.48
2018-12-30T05:53:08.911Z,95404.97
2018-12-30T05:55:38.382Z,95407.76
2018-12-30T05:58:07.893Z,95406.94
2018-12-30T06:00:37.373Z,95403.61
2018-12-30T06:03:06.896Z,95412.11
2018-12-30T06:05:36.369Z,95414.28
2018-12-30T06:08:05.847Z,95411.28
2018-12-30T06:10:35.659Z,95417.16
2018-12-30T06:13:05.170Z,95410.19
2018-12-30T06:15:34.708Z,95414.50
2018-12-30T06:18:04.231Z,95414.30
2018-12-30T06:20:33.690Z,95414.76
2018-12-30T06:23:03.162Z,95418.84
2018-12-30T06:25:32.621Z,95422.29
2018-12-30T06:28:02.589Z,95420.85
2018-12-30T06:30:32.097Z,95425.34
2018-12-30T06:33:01.635Z,95421.81
2018-12-30T06:35:31.158Z,95428.75
2018-12-30T06:38:00.666Z,95432.39
2018-12-30T06:40:30.179Z,95432.95
2018-12-30T06:42:59.690Z,95437.66
2018-12-30T06:45:29.173Z,95436.78
2018-12-30T06:47:58.755Z,95435.97
2018-12-30T06:50:28.280Z,95442.84
2018-12-30T06:52:57.996Z,95442.65
2018-12-30T06:55:27.472Z,95444.84
2018-12-30T06:57:56.991Z,95436.05
2018-12-30T07:00:26.614Z,95434.45
2018-12-30T07:02:56.134Z,95441.13
2018-12-30T07:05:25.715Z,95441.55
2018-12-30T07:07:55.207Z,95440.75
2018-12-30T07:10:24.737Z,95435.84
2018-12-30T07:12:54.354Z,95444.65
2018-12-30T07:15:24.224Z,95437.68
2018-12-30T07:17:54.293Z,95438.86
2018-12-30T07:20:23.795Z,95442.73
2018-12-30T07:22:53.339Z,95440.66
2018-12-30T07:25:22.809Z,95434.96
2018-12-30T07:27:52.314Z,95437.48
2018-12-30T07:30:21.912Z,95439.23
2018-12-30T07:32:52.720Z,95436.84
2018-12-30T07:35:22.189Z,95441.97
2018-12-30T07:37:51.703Z,95440.81
2018-12-30T07:40:21.317Z,95438.16
2018-12-30T07:42:50.856Z,95450.18
2018-12-30T07:45:20.358Z,95451.08
2018-12-30T07:47:49.906Z,95452.66
2018-12-30T07:50:19.487Z,95453.00
2018-12-30T07:52:48.974Z,95451.05
2018-12-30T07:55:18.561Z,95449.41
2018-12-30T07:57:48.101Z,95446.50
2018-12-30T08:00:17.652Z,95450.94
2018-12-30T08:02:47.142Z,95452.25
2018-12-30T08:05:16.717Z,95458.60
2018-12-30T08:07:46.279Z,95450.81
2018-12-30T08:10:15.751Z,95455.98
2018-12-30T08:12:45.251Z,95450.47
2018-12-30T08:15:14.810Z,95450.52
2018-12-30T08:17:44.788Z,95451.34
2018-12-30T08:20:14.380Z,95458.03
2018-12-30T08:22:43.910Z,95453.99
2018-12-30T08:25:13.388Z,95455.19
2018-12-30T08:27:42.995Z,95453.94
2018-12-30T08:30:12.531Z,95452.84
2018-12-30T08:32:42.137Z,95453.56
2018-12-30T08:35:11.672Z,95463.77
2018-12-30T08:37:41.179Z,95462.19
2018-12-30T08:40:10.791Z,95466.80
2018-12-30T08:42:40.429Z,95465.36
2018-12-30T08:45:09.956Z,95462.52
2018-12-30T08:47:39.484Z,95463.94
2018-12-30T08:50:09.125Z,95467.56
2018-12-30T08:52:38.666Z,95464.92
2018-12-30T08:55:08.195Z,95457.79
2018-12-30T08:57:37.671Z,95461.41
2018-12-30T09:00:07.430Z,95461.69
2018-12-30T09:02:36.955Z,95462.66
2018-12-30T09:05:06.476Z,95461.88
2018-12-30T09:07:35.991Z,95462.64
2018-12-30T09:10:05.560Z,95457.44
2018-12-30T09:12:35.125Z,95456.05
2018-12-30T09:15:04.643Z,95456.87
2018-12-30T09:17:34.152Z,95451.23
2018-12-30T09:20:03.720Z,95455.60
2018-12-30T09:22:33.243Z,95452.19
2018-12-30T09:25:02.778Z,95454.41
2018-12-30T09:27:32.250Z,95450.30
2018-12-30T09:30:01.744Z,95449.08
2018-12-30T09:32:31.218Z,95446.41
2018-12-30T09:35:00.779Z,95442.17
2018-12-30T09:37:30.287Z,95441.91
2018-12-30T09:39:59.814Z,95443.35
2018-12-30T09:42:29.341Z,95441.62
2018-12-30T09:44:58.922Z,95438.95
2018-12-30T09:47:28.449Z,95436.91
2018-12-30T09:49:57.964Z,95439.44
2018-12-30T09:52:27.526Z,95433.93
2018-12-30T09:54:57.313Z,95433.02
2018-12-30T09:57:26.803Z,95428.11
2018-12-30T09:59:56.306Z,95427.34
2018-12-30T10:02:25.815Z,95423.61
2018-12-30T10:04:55.385Z,95417.77
2018-12-30T10:07:24.859Z,95419.56
2018-12-30T10:09:54.384Z,95413.88
2018-12-30T10:12:23.915Z,95412.58
2018-12-30T10:14:53.449Z,95412.27
2018-12-30T10:17:22.983Z,95413.01
2018-12-30T10:19:52.525Z,95404.86
2018-12-30T10:22:22.005Z,95406.78
2018-12-30T10:24:51.515Z,95405.41
2018-12-30T10:27:21.239Z,95395.72
2018-12-30T10:29:50.912Z,95400.31
2018-12-30T10:32:20.420Z,95389.98
2018-12-30T10:34:49.975Z,95385.14
2018-12-30T10:37:19.450Z,95384.78
2018-12-30T10:39:48.967Z,95384.63
2018-12-30T10:42:18.579Z,95381.38
2018-12-30T10:44:48.224Z,95379.88
2018-12-30T10:47:17.715Z,95378.58
2018-12-30T10:49:47.217Z,95375.81
2018-12-30T10:52:16.738Z,95374.23
2018-12-30T10:54:46.280Z,95373.58
2018-12-30T10:57:15.822Z,95368.13
2018-12-30T10:59:45.445Z,95364.95
2018-12-30T11:02:15.008Z,95370.65
2018-12-30T11:04:44.506Z,95364.83
2018-12-30T11:07:14.025Z,95360.33
2018-12-30T11:09:43.583Z,95359.70
2018-12-30T11:12:13.098Z,95358.95
2018-12-30T11:14:42.714Z,95356.12
2018-12-30T11:17:12.309Z,95348.62
2018-12-30T11:19:41.878Z,95351.78
2018-12-30T11:22:11.402Z,95355.36
2018-12-30T11:24:40.837Z,95352.41
2018-12-30T11:27:10.327Z,95344.83
2018-12-30T11:29:39.855Z,95345.92
2018-12-30T11:32:09.919Z,95349.67
2018-12-30T11:34:39.466Z,95343.47
2018-12-30T11:37:09.007Z,95338.47
2018-12-30T11:39:38.529Z,95338.80
2018-12-30T11:42:08.117Z,95348.43
2018-12-30T11:44:37.672Z,95346.26
2018-12-30T11:47:07.268Z,95338.73
2018-12-30T11:49:36.798Z,95346.90
2018-12-30T11:52:08.073Z,95342.05
2018-12-30T11:54:37.612Z,95337.77
2018-12-30T11:57:10.339Z,95337.60
2018-12-30T11:59:39.904Z,95345.81
2018-12-30T12:02:24.612Z,95342.00
2018-12-30T12:04:54.140Z,95344.08
2018-12-30T12:07:23.644Z,95342.05
2018-12-30T12:09:53.174Z,95334.38
2018-12-30T12:12:22.702Z,95330.68
2018-12-30T12:14:53.076Z,95336.20
2018-12-30T12:17:23.448Z,95333.20
2018-12-30T12:19:53.133Z,95334.78
2018-12-30T12:22:22.678Z,95343.58
2018-12-30T12:24:53.703Z,95340.11
2018-12-30T12:27:23.257Z,95334.23
2018-12-30T12:29:54.644Z,95337.13
2018-12-30T12:32:25.400Z,95339.98
2018-12-30T12:34:56.336Z,95340.60
2018-12-30T12:37:32.697Z,95340.52
2018-12-30T12:40:03.725Z,95334.86
2018-12-30T12:42:33.738Z,95331.91
2018-12-30T12:45:04.328Z,95334.24
2018-12-30T12:47:34.211Z,95333.85
2018-12-30T12:50:05.702Z,95337.52
2018-12-30T12:52:35.232Z,95339.97
2018-12-30T12:55:05.647Z,95336.84
2018-12-30T12:57:35.119Z,95337.57
2018-12-30T13:00:08.546Z,95336.78
2018-12-30T13:02:38.059Z,95336.55
2018-12-30T13:05:07.652Z,95340.45
2018-12-30T13:07:45.963Z,95339.02
2018-12-30T13:10:15.498Z,95334.22
2018-12-30T13:12:45.107Z,95337.97
2018-12-30T13:15:14.588Z,95336.35
2018-12-30T13:17:44.182Z,95331.78
2018-12-30T13:20:13.724Z,95335.14
2018-12-30T13:22:43.220Z,95334.98
2018-12-30T13:25:12.794Z,95337.19
2018-12-30T13:27:43.031Z,95336.30
2018-12-30T13:30:12.672Z,95337.52
2018-12-30T13:32:42.185Z,95340.50
2018-12-30T13:35:11.733Z,95336.98
2018-12-30T13:37:41.203Z,95329.52
2018-12-30T13:40:10.703Z,95335.13
2018-12-30T13:42:40.404Z,95336.50
2018-12-30T13:45:09.929Z,95333.48
2018-12-30T13:47:39.387Z,95340.79
2018-12-30T13:50:09.262Z,95343.37
2018-12-30T13:52:38.836Z,95341.94
2018-12-30T13:55:08.342Z,95336.55
2018-12-30T13:57:48.205Z,95335.20
2018-12-30T14:00:17.711Z,95337.40
2018-12-30T14:02:47.190Z,95340.03
2018-12-30T14:05:16.744Z,95335.54
2018-12-30T14:07:46.260Z,95337.72
2018-12-30T14:10:15.760Z,95333.22
2018-12-30T14:12:45.250Z,95331.38
2018-12-30T14:15:14.717Z,95335.25
2018-12-30T14:17:44.295Z,95339.45
2018-12-30T14:20:13.793Z,95330.69
2018-12-30T14:22:43.384Z,95333.23
2018-12-30T14:25:16.493Z,95336.07
2018-12-30T14:27:46.005Z,95335.95
2018-12-30T14:30:15.811Z,95333.35
2018-12-30T14:32:45.319Z,95334.94
2018-12-30T14:35:15.194Z,95332.53
2018-12-30T14:37:44.719Z,95340.05
2018-12-30T14:40:14.202Z,95342.31
2018-12-30T14:42:43.741Z,95336.77
2018-12-30T14:45:13.265Z,95336.09
2018-12-30T14:47:42.826Z,95344.74
2018-12-30T14:50:13.400Z,95346.06
2018-12-30T14:52:42.906Z,95342.31
2018-12-30T14:55:12.643Z,95342.15
2018-12-30T14:57:42.230Z,95346.69
2018-12-30T15:00:12.582Z,95348.70
2018-12-30T15:02:42.253Z,95340.77
2018-12-30T15:05:24.891Z,95340.77
2018-12-30T15:07:54.404Z,95345.77
2018-12-30T15:10:23.928Z,95348.37
2018-12-30T15:12:53.402Z,95343.84
2018-12-30T15:15:22.843Z,95346.51
2018-12-30T15:17:52.357Z,95345.79
2018-12-30T15:20:21.897Z,95344.83
2018-12-30T15:22:51.468Z,95344.76
2018-12-30T15:25:20.993Z,95351.72
2018-12-30T15:27:50.706Z,95355.08
2018-12-30T15:30:20.227Z,95354.94
2018-12-30T15:32:49.880Z,95355.12
2018-12-30T15:35:19.449Z,95350.08
2018-12-30T15:37:49.012Z,95353.83
2018-12-30T15:40:18.493Z,95356.92
2018-12-30T15:42:47.969Z,95353.70
2018-12-30T15:45:17.428Z,95356.92
2018-12-30T15:47:47.037Z,95353.51
2018-12-30T15:50:16.568Z,95352.87
2018-12-30T15:52:46.164Z,95355.62
2018-12-30T15:55:19.412Z,95347.34
2018-12-30T15:57:46.934Z,95354.79
2018-12-30T16:00:16.439Z,95362.94
2018-12-30T16:02:45.963Z,95355.14
2018-12-30T16:05:15.520Z,95352.89
2018-12-30T16:07:45.098Z,95359.93
2018-12-30T16:10:14.570Z,95359.37
2018-12-30T16:12:44.066Z,95358.89
2018-12-30T16:15:13.592Z,95362.19
2018-12-30T16:17:43.169Z,95355.22
2018-12-30T16:20:12.631Z,95360.27
2018-12-30T16:22:42.137Z,95358.75
2018-12-30T16:25:11.668Z,95358.41
2018-12-30T16:27:41.125Z,95363.27
2018-12-30T16:30:11.043Z,95359.37
2018-12-30T16:32:40.510Z,95363.95
2018-12-30T16:35:09.980Z,95365.53
2018-12-30T16:37:39.630Z,95361.42
2018-12-30T16:40:09.242Z,95364.21
2018-12-30T16:42:38.757Z,95368.05
2018-12-30T16:45:08.476Z,95367.09
2018-12-30T16:47:41.976Z,95367.70
2018-12-30T16:50:11.068Z,95371.34
2018-12-30T16:52:40.647Z,95366.69
2018-12-30T16:55:10.218Z,95370.09
2018-12-30T16:57:39.727Z,95373.87
2018-12-30T17:00:10.594Z,95377.01
2018-12-30T17:02:40.049Z,95375.71
2018-12-30T17:05:10.561Z,95376.53
2018-12-30T17:07:40.213Z,95379.66
2018-12-30T17:10:10.404Z,95376.37
2018-12-30T17:12:39.903Z,95375.69
2018-12-30T17:15:09.667Z,95373.38
2018-12-30T17:17:39.205Z,95379.67
2018-12-30T17:20:08.785Z,95375.13
2018-12-30T17:22:38.294Z,95382.32
2018-12-30T17:25:08.333Z,95382.86
2018-12-30T17:27:37.846Z,95386.12
2018-12-30T17:30:08.874Z,95386.55
2018-12-30T17:32:38.395Z,95388.87
2018-12-30T17:35:08.080Z,95395.23
2018-12-30T17:37:37.600Z,95397.95
2018-12-30T17:40:07.849Z,95394.98
2018-12-30T17:42:37.339Z,95394.34
2018-12-30T17:45:07.090Z,95394.88
2018-12-30T17:47:36.678Z,95394.20
2018-12-30T17:50:08.042Z,95395.30
2018-12-30T17:52:37.521Z,95396.65
2018-12-30T17:55:07.023Z,95394.93
2018-12-30T17:57:36.564Z,95396.98
2018-12-30T18:00:06.925Z,95396.28
2018-12-30T18:02:36.421Z,95397.66
2018-12-30T18:05:06.990Z,95403.36
2018-12-30T18:07:36.519Z,95397.02
2018-12-30T18:10:06.440Z,95398.70
2018-12-30T18:12:35.958Z,95401.11
2018-12-30T18:15:06.155Z,95397.75
2018-12-30T18:17:41.416Z,95396.14
2018-12-30T18:20:06.939Z,95400.70
2018-12-30T18:22:36.408Z,95402.15
2018-12-30T18:25:06.151Z,95396.14
2018-12-30T18:27:35.692Z,95398.93
2018-12-30T18:30:06.046Z,95395.17
2018-12-30T18:32:35.521Z,95404.26
2018-12-30T18:35:05.268Z,95404.80
2018-12-30T18:37:36.151Z,95404.80
2018-12-30T18:40:05.976Z,95404.03
2018-12-30T18:42:35.449Z,95400.14
2018-12-30T18:45:05.271Z,95399.47
2018-12-30T18:47:34.778Z,95398.45
2018-12-30T18:50:04.658Z,95397.41
2018-12-30T18:52:34.164Z,95401.58
2018-12-30T18:55:03.725Z,95398.70
2018-12-30T18:57:33.210Z,95397.53
2018-12-30T19:00:02.736Z,95392.84
2018-12-30T19:02:32.226Z,95391.41
2018-12-30T19:05:01.695Z,95392.50
2018-12-30T19:07:31.199Z,95395.07
2018-12-30T19:10:00.752Z,95389.69
2018-12-30T19:12:30.320Z,95391.13
2018-12-30T19:14:59.894Z,95390.92
2018-12-30T19:17:29.425Z,95391.94
2018-12-30T19:19:58.986Z,95391.74
2018-12-30T19:22:29.930Z,95397.24
2018-12-30T19:24:59.408Z,95393.17
2018-12-30T19:27:28.938Z,95387.38
2018-12-30T19:29:58.473Z,95386.86
2018-12-30T19:32:27.968Z,95386.69
2018-12-30T19:34:57.442Z,95389.94
2018-12-30T19:37:26.942Z,95386.33
2018-12-30T19:39:56.420Z,95379.16
2018-12-30T19:42:25.967Z,95379.00
2018-12-30T19:44:56.686Z,95378.45
2018-12-30T19:47:26.217Z,95379.95
2018-12-30T19:49:55.783Z,95375.53
2018-12-30T19:52:25.346Z,95372.93
2018-12-30T19:54:54.856Z,95374.98
2018-12-30T19:57:24.375Z,95374.17
2018-12-30T19:59:53.807Z,95374.37
2018-12-30T20:02:23.339Z,95368.70
2018-12-30T20:04:53.172Z,95370.88
2018-12-30T20:07:22.793Z,95371.64
2018-12-30T20:09:52.303Z,95369.72
2018-12-30T20:12:21.792Z,95369.72
2018-12-30T20:14:51.361Z,95366.16
2018-12-30T20:17:20.903Z,95366.16
2018-12-30T20:19:50.392Z,95365.52
2018-12-30T20:22:19.938Z,95365.63
2018-12-30T20:24:49.494Z,95368.08
2018-12-30T20:27:18.988Z,95365.43
2018-12-30T20:29:48.508Z,95367.88
2018-12-30T20:32:17.983Z,95363.48
2018-12-30T20:34:47.561Z,95363.31
2018-12-30T20:37:17.049Z,95362.27
2018-12-30T20:39:46.612Z,95355.34
2018-12-30T20:42:16.354Z,95360.24
2018-12-30T20:44:51.650Z,95364.02
2018-12-30T20:47:21.235Z,95358.95
2018-12-30T20:49:50.840Z,95363.86
2018-12-30T20:52:20.309Z,95362.70
2018-12-30T20:54:49.850Z,95359.97
2018-12-30T20:57:19.386Z,95363.06
2018-12-30T20:59:48.949Z,95362.92
2018-12-30T21:02:18.537Z,95357.65
2018-12-30T21:04:47.985Z,95357.73
2018-12-30T21:07:17.601Z,95359.08
2018-12-30T21:09:47.085Z,95363.86
2018-12-30T21:12:16.543Z,95366.75
2018-12-30T21:14:46.158Z,95360.66
2018-12-30T21:17:15.647Z,95358.69
2018-12-30T21:19:45.147Z,95365.57
2018-12-30T21:22:14.673Z,95359.84
2018-12-30T21:24:44.213Z,95361.63
2018-12-30T21:27:13.736Z,95366.11
2018-12-30T21:29:43.250Z,95363.66
2018-12-30T21:32:12.780Z,95362.08
2018-12-30T21:34:42.264Z,95360.74
2018-12-30T21:37:11.818Z,95362.58
2018-12-30T21:39:41.360Z,95364.30
2018-12-30T21:42:10.918Z,95358.80
2018-12-30T21:44:40.403Z,95363.03
2018-12-30T21:47:09.878Z,95365.69
2018-12-30T21:49:39.423Z,95366.67
2018-12-30T21:52:08.938Z,95360.58
2018-12-30T21:54:38.434Z,95364.81
2018-12-30T21:57:07.948Z,95359.03
2018-12-30T21:59:37.477Z,95362.24
2018-12-30T22:02:07.002Z,95360.69
2018-12-30T22:04:36.873Z,95357.81
2018-12-30T22:07:06.401Z,95358.09
2018-12-30T22:09:35.843Z,95353.89
2018-12-30T22:12:05.343Z,95359.30
2018-12-30T22:14:37.097Z,95359.02
2018-12-30T22:17:06.621Z,95364.03
2018-12-30T22:19:36.115Z,95356.23
2018-12-30T22:22:05.603Z,95361.44
2018-12-30T22:24:35.251Z,95357.60
2018-12-30T22:27:04.745Z,95354.55
2018-12-30T22:29:34.217Z,95351.73
2018-12-30T22:32:03.771Z,95354.05
2018-12-30T22:34:33.266Z,95351.93
2018-12-30T22:37:02.776Z,95350.63
2018-12-30T22:39:32.294Z,95350.15
2018-12-30T22:42:01.816Z,95349.00
2018-12-30T22:44:31.295Z,95354.17
2018-12-30T22:47:00.769Z,95348.70
2018-12-30T22:49:30.237Z,95354.38
2018-12-30T22:51:59.759Z,95348.05
2018-12-30T22:54:29.355Z,95338.88
2018-12-30T22:56:58.906Z,95343.59
2018-12-30T22:59:28.449Z,95341.22
2018-12-30T23:01:57.924Z,95345.45
2018-12-30T23:04:27.467Z,95339.64
2018-12-30T23:06:57.030Z,95341.80
2018-12-30T23:09:26.503Z,95337.21
2018-12-30T23:11:56.004Z,95342.77
2018-12-30T23:14:25.509Z,95342.09
2018-12-30T23:16:54.946Z,95341.58
2018-12-30T23:19:24.483Z,95335.66
2018-12-30T23:21:54.039Z,95342.81
2018-12-30T23:24:23.547Z,95333.74
2018-12-30T23:26:53.098Z,95326.30
2018-12-30T23:29:22.678Z,95329.77
2018-12-30T23:31:52.179Z,95326.16
2018-12-30T23:34:22.049Z,95325.59
2018-12-30T23:36:51.653Z,95326.89
2018-12-30T23:39:21.111Z,95328.75
2018-12-30T23:41:50.883Z,95325.31
2018-12-30T23:44:20.353Z,95327.22
2018-12-30T23:46:49.865Z,95333.56
2018-12-30T23:49:19.547Z,95336.75
2018-12-30T23:51:48.986Z,95333.91
2018-12-30T23:54:18.450Z,95332.42
2018-12-30T23:56:47.965Z,95334.08
2018-12-30T23:59:17.547Z,95335.38
